Time;durP1;ratioP1;P1;durP2;ratioP2;P2;SDS_P1;SDS_P2;PMS_P1;PMS_P2;Temp;Humidity;BMP_temperature;BMP_pressure;BME280_temperature;BME280_humidity;BME280_pressure;Samples;Min_cycle;Max_cycle;Signal;HPM_P1;HPM_P2
2021/08/13 00:00:16;;;;;;;3.53;3.20;;;18.00;99.90;;;15.76;100.00;100600.06;2548478;30;133315;-82
2021/08/13 00:02:45;;;;;;;4.65;3.33;;;18.10;99.90;;;15.81;100.00;100597.66;2545929;38;134126;-81
2021/08/13 00:05:14;;;;;;;5.93;4.10;;;18.10;99.90;;;15.92;100.00;100596.34;2546681;30;132939;-82
2021/08/13 00:07:43;;;;;;;4.28;3.55;;;18.10;99.90;;;15.88;100.00;100592.34;2545448;30;136611;-82
2021/08/13 00:10:14;;;;;;;6.45;3.67;;;18.10;99.90;;;15.83;100.00;100595.56;2544296;38;134505;-82
2021/08/13 00:12:43;;;;;;;4.95;4.03;;;18.10;99.90;;;15.89;100.00;100596.72;2550104;30;134785;-81
2021/08/13 00:15:13;;;;;;;4.85;3.72;;;18.10;99.90;;;15.89;100.00;100597.56;2557170;38;132620;-81
2021/08/13 00:17:42;;;;;;;5.10;3.67;;;18.10;99.90;;;15.82;100.00;100593.09;2545580;30;133761;-81
2021/08/13 00:20:14;;;;;;;4.55;3.70;;;18.10;99.90;;;15.81;100.00;100594.94;2548064;30;134012;-83
2021/08/13 00:22:42;;;;;;;7.05;3.55;;;18.10;99.90;;;15.74;100.00;100604.78;2547981;30;133531;-82
2021/08/13 00:25:13;;;;;;;5.43;3.72;;;18.00;99.90;;;15.69;100.00;100599.13;2548418;31;133100;-82
2021/08/13 00:27:42;;;;;;;5.55;3.67;;;18.00;99.90;;;15.58;100.00;100603.06;2546847;38;136010;-84
2021/08/13 00:30:13;;;;;;;4.65;3.03;;;17.80;99.90;;;15.58;100.00;100607.66;2549455;30;134040;-82
2021/08/13 00:32:43;;;;;;;5.32;3.65;;;18.00;99.90;;;15.60;100.00;100617.22;2546416;30;135012;-83
2021/08/13 00:35:12;;;;;;;3.63;3.30;;;17.90;99.90;;;15.76;100.00;100624.34;2549891;30;133412;-80
2021/08/13 00:37:41;;;;;;;3.75;3.20;;;17.90;99.90;;;15.64;100.00;100623.09;2547840;30;135248;-82
2021/08/13 00:40:14;;;;;;;4.25;3.85;;;17.90;99.90;;;15.49;100.00;100630.28;2547712;30;135052;-81
2021/08/13 00:42:45;;;;;;;5.15;4.10;;;17.90;99.90;;;15.48;100.00;100634.84;2546125;30;134677;-82
2021/08/13 00:45:16;;;;;;;4.05;3.15;;;17.90;99.90;;;15.48;100.00;100636.69;2548705;30;133149;-82
2021/08/13 00:47:57;;;;;;;7.43;4.28;;;17.80;99.90;;;15.41;100.00;100640.13;2544368;38;135976;-81
2021/08/13 00:50:37;;;;;;;5.63;3.95;;;17.80;99.90;;;15.34;100.00;100651.78;2551290;30;136088;-83
2021/08/13 00:53:10;;;;;;;4.10;3.72;;;17.70;99.90;;;15.43;100.00;100642.66;2560471;30;133158;-82
2021/08/13 00:55:43;;;;;;;7.32;3.83;;;17.70;99.90;;;15.43;100.00;100656.97;2547432;30;133382;-82
2021/08/13 00:58:33;;;;;;;4.47;3.55;;;18.20;99.90;;;15.41;100.00;100648.22;2549126;30;133706;-83
2021/08/13 01:01:12;;;;;;;4.93;3.63;;;17.70;99.90;;;15.41;100.00;100652.75;2547484;30;134943;-82
2021/08/13 01:03:42;;;;;;;7.57;3.97;;;17.70;99.90;;;15.26;100.00;100647.31;2546621;30;135063;-82
2021/08/13 01:06:12;;;;;;;6.45;4.30;;;17.70;99.90;;;15.18;100.00;100655.47;2547909;38;133744;-81
2021/08/13 01:08:42;;;;;;;3.90;3.47;;;17.70;99.90;;;15.10;100.00;100650.09;2545914;30;135570;-82
2021/08/13 01:11:28;;;;;;;4.43;3.85;;;17.60;99.90;;;15.07;100.00;100524.66;2545900;30;135100;-82
2021/08/13 01:14:08;;;;;;;5.10;3.95;;;17.50;99.90;;;14.96;100.00;100521.56;2546414;38;135609;-80
2021/08/13 01:16:42;;;;;;;6.90;4.22;;;17.50;99.90;;;14.93;100.00;100492.28;2547252;30;133138;-80
2021/08/13 01:19:23;;;;;;;4.63;4.18;;;18.40;99.90;;;14.90;100.00;100360.63;2544808;38;135330;-82
2021/08/13 01:21:59;;;;;;;4.72;3.50;;;17.30;99.90;;;14.83;100.00;100363.22;2552514;30;136680;-79
2021/08/13 01:24:32;;;;;;;6.00;4.03;;;17.20;99.90;;;14.81;100.00;100369.81;2547198;38;133316;-81
2021/08/13 01:27:10;;;;;;;4.35;3.50;;;17.20;99.90;;;14.84;100.00;100331.72;2547140;30;133328;-80
2021/08/13 01:29:51;;;;;;;4.10;3.70;;;17.10;99.90;;;14.96;100.00;100152.44;2547812;30;135857;-81
2021/08/13 01:32:39;;;;;;;4.97;3.92;;;17.10;99.90;;;14.84;100.00;100167.38;2546103;30;135491;-82
2021/08/13 01:35:17;;;;;;;4.50;3.80;;;17.00;99.90;;;14.68;100.00;100180.06;2547980;30;134538;-82
2021/08/13 01:37:53;;;;;;;4.70;4.15;;;17.00;99.90;;;14.60;100.00;100206.22;2562572;30;132414;-82
2021/08/13 01:40:26;;;;;;;3.85;3.22;;;16.90;99.90;;;14.60;100.00;100212.47;2560588;38;133871;-80
2021/08/13 01:42:58;;;;;;;4.22;3.75;;;16.80;99.90;;;14.56;100.00;100213.03;2561290;30;133938;-84
2021/08/13 01:45:34;;;;;;;5.88;3.97;;;16.80;99.90;;;14.55;100.00;100222.13;2546271;30;134535;-81
2021/08/13 01:48:07;;;;;;;6.00;4.20;;;17.50;99.90;;;14.47;100.00;100220.34;2546885;30;133349;-81
2021/08/13 01:50:42;;;;;;;5.13;3.88;;;16.70;99.90;;;14.35;100.00;100225.31;2547403;30;135852;-81
2021/08/13 01:53:12;;;;;;;4.88;3.97;;;16.60;99.90;;;14.31;100.00;100221.34;2548146;30;135328;-82
2021/08/13 01:55:43;;;;;;;5.90;4.30;;;16.50;99.90;;;14.31;100.00;100188.22;2548497;30;134878;-81
2021/08/13 01:58:16;;;;;;;5.80;4.63;;;16.50;99.90;;;14.28;100.00;100263.94;2550559;30;133031;-83
2021/08/13 02:00:47;;;;;;;10.43;4.85;;;16.40;99.90;;;14.29;100.00;100276.38;2548240;38;134579;-82
2021/08/13 02:03:18;;;;;;;5.78;4.15;;;16.40;99.90;;;14.18;100.00;100303.72;2547069;30;134887;-82
2021/08/13 02:05:50;;;;;;;6.97;3.92;;;16.30;99.90;;;14.13;100.00;100341.91;2550972;30;133273;-82
2021/08/13 02:08:20;;;;;;;5.50;4.10;;;16.30;99.90;;;14.11;100.00;100356.56;2546391;30;133703;-81
2021/08/13 02:10:52;;;;;;;7.72;5.22;;;16.10;99.90;;;14.07;100.00;100366.03;2546269;30;134874;-80
2021/08/13 02:13:22;;;;;;;4.78;4.15;;;16.20;99.90;;;13.96;100.00;100388.81;2548014;30;135870;-82
2021/08/13 02:16:05;;;;;;;4.32;3.92;;;16.20;99.90;;;13.95;100.00;100447.16;2547181;30;134905;-81
2021/08/13 02:18:41;;;;;;;10.02;4.63;;;16.10;99.90;;;14.05;100.00;100483.75;2548078;30;132974;-78
2021/08/13 02:21:16;;;;;;;4.68;3.92;;;16.10;99.90;;;14.12;100.00;100495.47;2545295;30;135887;-80
2021/08/13 02:23:45;;;;;;;5.15;3.53;;;16.10;99.90;;;14.17;100.00;100495.78;2547202;30;135332;-81
2021/08/13 02:26:16;;;;;;;8.18;4.30;;;16.00;99.90;;;14.20;100.00;100504.38;2556562;30;135544;-81
2021/08/13 02:28:50;;;;;;;6.15;4.03;;;16.80;99.90;;;14.17;100.00;100506.56;2561729;38;133422;-82
2021/08/13 02:31:23;;;;;;;4.30;3.90;;;16.00;99.90;;;14.17;100.00;100501.16;2548896;30;134579;-81
2021/08/13 02:33:53;;;;;;;5.47;4.07;;;16.10;99.90;;;14.08;100.00;100503.06;2545742;30;135297;-80
2021/08/13 02:36:32;;;;;;;9.88;4.60;;;16.00;99.90;;;13.99;100.00;100501.41;2550323;30;135207;-81
2021/08/13 02:39:09;;;;;;;5.43;3.85;;;16.00;99.90;;;13.96;100.00;100509.84;2546507;30;133532;-81
2021/08/13 02:41:45;;;;;;;4.43;3.90;;;16.00;99.90;;;13.97;100.00;100512.34;2548953;30;133262;-81
2021/08/13 02:44:18;;;;;;;6.72;3.88;;;16.00;99.90;;;13.92;100.00;100520.13;2546700;30;136069;-79
2021/08/13 02:46:57;;;;;;;9.80;4.45;;;16.00;99.90;;;13.90;100.00;100524.81;2546018;30;134839;-81
2021/08/13 02:49:30;;;;;;;5.30;4.78;;;16.00;99.90;;;13.89;100.00;100536.59;2546467;30;133045;-80
2021/08/13 02:52:07;;;;;;;5.00;4.50;;;16.00;99.90;;;13.84;100.00;100535.47;2547894;30;136223;-81
2021/08/13 02:54:41;;;;;;;7.65;4.63;;;15.90;99.90;;;13.84;100.00;100551.59;2546619;30;135335;-81
2021/08/13 02:57:11;;;;;;;6.47;4.87;;;15.90;99.90;;;13.86;100.00;100561.16;2545023;30;133383;-81
2021/08/13 02:59:46;;;;;;;7.50;4.20;;;15.90;99.90;;;13.95;100.00;100570.06;2548016;30;133171;-80
2021/08/13 03:02:15;;;;;;;6.78;4.68;;;15.90;99.90;;;13.92;100.00;100568.53;2545528;30;135965;-83
2021/08/13 03:04:48;;;;;;;7.00;5.05;;;16.00;99.90;;;13.99;100.00;100568.66;2545834;30;135343;-81
2021/08/13 03:07:17;;;;;;;7.03;5.50;;;16.00;99.90;;;13.95;100.00;100572.75;2545927;30;135480;-80
2021/08/13 03:09:48;;;;;;;6.88;5.30;;;16.00;99.90;;;13.91;100.00;100568.72;2546773;30;133418;-79
2021/08/13 03:12:18;;;;;;;5.53;4.55;;;16.00;99.90;;;13.94;100.00;100576.44;2560324;30;136198;-82
2021/08/13 03:14:48;;;;;;;6.85;4.82;;;16.00;99.90;;;14.00;100.00;100575.72;2558459;30;134448;-81
2021/08/13 03:17:18;;;;;;;5.45;4.82;;;16.00;99.90;;;14.08;100.00;100583.81;2548944;30;135592;-82
2021/08/13 03:19:48;;;;;;;5.88;5.05;;;16.10;99.90;;;14.09;100.00;100581.94;2548895;30;132992;-81
2021/08/13 03:22:21;;;;;;;7.03;5.03;;;16.10;99.90;;;14.11;100.00;100574.50;2546730;38;134010;-81
2021/08/13 03:24:50;;;;;;;5.75;4.38;;;16.10;99.90;;;14.15;100.00;100575.84;2548686;30;133665;-83
2021/08/13 03:27:20;;;;;;;5.50;4.88;;;16.10;99.90;;;14.21;100.00;100570.63;2547136;30;135171;-81
2021/08/13 03:29:49;;;;;;;6.10;4.72;;;16.10;99.90;;;14.23;100.00;100567.75;2546631;30;132962;-81
2021/08/13 03:32:21;;;;;;;5.00;3.88;;;16.10;99.90;;;14.20;100.00;100560.88;2547677;30;136557;-80
2021/08/13 03:34:52;;;;;;;5.30;4.05;;;16.10;99.90;;;14.13;100.00;100550.97;2548218;30;135777;-82
2021/08/13 03:37:21;;;;;;;5.68;4.80;;;16.10;99.90;;;14.08;100.00;100551.50;2547088;31;135710;-81
2021/08/13 03:39:50;;;;;;;5.97;4.40;;;16.10;99.90;;;13.95;100.00;100552.06;2546588;30;133088;-82
2021/08/13 03:42:19;;;;;;;6.18;4.82;;;16.10;99.90;;;13.92;100.00;100559.63;2546855;30;136091;-82
2021/08/13 03:44:48;;;;;;;6.55;5.55;;;16.00;99.90;;;13.89;100.00;100568.03;2545338;30;135659;-82
2021/08/13 03:47:17;;;;;;;5.80;4.40;;;16.00;99.90;;;13.86;100.00;100579.97;2549931;30;133563;-81
2021/08/13 03:49:47;;;;;;;6.68;5.43;;;15.90;99.90;;;13.89;100.00;100592.25;2547368;38;133861;-81
2021/08/13 03:52:19;;;;;;;10.35;6.32;;;15.90;99.90;;;13.89;100.00;100590.41;2544891;30;135612;-81
2021/08/13 03:54:49;;;;;;;9.85;4.75;;;15.90;99.90;;;13.92;100.00;100592.75;2544190;38;135717;-80
2021/08/13 03:57:18;;;;;;;7.68;4.90;;;15.80;99.90;;;13.86;100.00;100598.81;2561950;30;134340;-79
2021/08/13 03:59:47;;;;;;;8.55;4.60;;;15.80;99.90;;;13.80;100.00;100601.34;2563034;30;131648;-82
2021/08/13 04:02:16;;;;;;;4.70;4.07;;;15.80;99.90;;;13.76;100.00;100606.22;2550900;30;135159;-81
2021/08/13 04:04:45;;;;;;;5.87;4.30;;;15.80;99.90;;;13.78;100.00;100614.97;2547267;31;136499;-83
2021/08/13 04:07:13;;;;;;;5.93;4.25;;;16.80;99.90;;;13.78;100.00;100617.66;2545566;30;133117;-80
2021/08/13 04:09:45;;;;;;;5.55;4.30;;;15.80;99.90;;;13.85;100.00;100607.03;2548264;30;133210;-82
2021/08/13 04:12:18;;;;;;;5.55;3.88;;;15.80;99.90;;;13.91;100.00;100603.69;2547385;30;135501;-82
2021/08/13 04:14:56;;;;;;;5.65;4.75;;;15.80;99.90;;;13.94;100.00;100596.13;2544457;30;135757;-82
2021/08/13 04:17:27;;;;;;;8.18;5.00;;;16.10;99.90;;;13.98;100.00;100592.03;2548121;38;135363;-84
2021/08/13 04:19:56;;;;;;;8.63;5.60;;;15.90;99.90;;;14.03;100.00;100591.53;2556791;30;132877;-82
2021/08/13 04:22:26;;;;;;;5.85;5.05;;;15.90;99.90;;;14.19;100.00;100596.03;2548962;30;135430;-82
2021/08/13 04:24:56;;;;;;;4.82;4.30;;;15.90;99.90;;;14.22;100.00;100590.28;2549481;38;133691;-82
2021/08/13 04:27:26;;;;;;;8.45;5.20;;;15.90;99.90;;;14.35;100.00;100591.41;2549484;30;134149;-82
2021/08/13 04:29:55;;;;;;;9.82;4.63;;;16.00;99.90;;;14.56;100.00;100577.38;2552092;38;133674;-81
2021/08/13 04:32:23;;;;;;;7.50;4.85;;;16.00;99.90;;;14.65;100.00;100567.41;2556557;30;133819;-84
2021/08/13 04:34:52;;;;;;;7.30;5.53;;;16.70;99.90;;;14.54;100.00;100554.34;2562955;30;133670;-80
2021/08/13 04:37:23;;;;;;;11.85;5.88;;;16.10;99.90;;;14.51;100.00;100544.75;2560530;30;133667;-82
2021/08/13 04:39:52;;;;;;;6.47;4.90;;;16.10;99.90;;;14.64;100.00;100558.47;2550439;30;133520;-82
2021/08/13 04:42:22;;;;;;;7.53;5.28;;;16.20;99.90;;;14.66;100.00;100540.28;2550073;30;133321;-80
2021/08/13 04:44:52;;;;;;;10.82;6.60;;;16.20;99.90;;;15.02;100.00;100540.53;2545676;30;135738;-81
2021/08/13 04:47:22;;;;;;;10.02;5.80;;;16.30;99.90;;;15.34;100.00;100541.25;2545516;38;135027;-82
2021/08/13 04:49:51;;;;;;;10.35;5.97;;;16.40;99.90;;;15.30;100.00;100526.47;2547036;30;134354;-82
2021/08/13 04:52:21;;;;;;;7.85;5.80;;;16.50;99.90;;;15.24;100.00;100522.66;2547642;30;136198;-82
2021/08/13 04:54:50;;;;;;;8.25;6.05;;;16.60;99.90;;;15.25;100.00;100500.06;2545462;30;136227;-83
2021/08/13 04:57:21;;;;;;;9.00;5.75;;;16.70;99.90;;;15.26;100.00;100477.47;2547434;30;133856;-81
2021/08/13 04:59:50;;;;;;;7.65;5.90;;;16.80;99.90;;;15.16;100.00;100479.59;2547078;30;133286;-82
2021/08/13 05:02:23;;;;;;;6.32;4.88;;;16.90;99.90;;;15.34;100.00;100463.06;2550258;30;135122;-80
2021/08/13 05:05:01;;;;;;;7.10;5.32;;;17.00;99.90;;;15.64;100.00;100461.25;2544481;30;135454;-81
2021/08/13 05:07:33;;;;;;;9.13;5.05;;;17.10;99.90;;;15.60;100.00;100455.38;2549466;30;133381;-82
2021/08/13 05:10:06;;;;;;;9.48;5.18;;;17.20;99.90;;;15.81;100.00;100454.66;2547887;38;132970;-82
2021/08/13 05:12:37;;;;;;;5.65;4.95;;;17.30;99.90;;;16.08;100.00;100447.69;2547908;30;135380;-80
2021/08/13 05:15:09;;;;;;;6.97;5.18;;;17.50;99.90;;;16.05;100.00;100434.59;2548884;30;136232;-79
2021/08/13 05:17:40;;;;;;;5.93;4.70;;;17.60;99.90;;;15.92;100.00;100419.09;2566237;30;133781;-81
2021/08/13 05:20:13;;;;;;;7.55;4.88;;;18.10;99.90;;;16.03;100.00;100409.66;2557045;38;132863;-81
2021/08/13 05:22:47;;;;;;;6.13;4.47;;;17.80;99.90;;;15.89;100.00;100400.56;2546515;30;135112;-82
2021/08/13 05:25:17;;;;;;;5.30;4.47;;;17.90;99.90;;;16.29;100.00;100388.34;2549995;30;135746;-84
2021/08/13 05:27:48;;;;;;;7.13;4.53;;;18.00;99.90;;;16.78;100.00;100379.47;2545892;30;135156;-83
2021/08/13 05:30:18;;;;;;;5.28;4.40;;;18.20;99.90;;;17.16;100.00;100369.94;2548694;30;133002;-82
2021/08/13 05:32:50;;;;;;;4.80;4.18;;;18.40;99.90;;;17.58;100.00;100344.56;2549158;30;136727;-83
2021/08/13 05:35:20;;;;;;;5.60;4.50;;;19.30;99.90;;;17.65;100.00;100347.34;2550303;30;136396;-83
2021/08/13 05:37:57;;;;;;;4.82;3.97;;;18.70;99.90;;;17.57;100.00;100360.97;2548501;30;134372;-80
2021/08/13 05:40:28;;;;;;;4.40;4.00;;;19.20;99.90;;;17.35;100.00;100375.66;2547155;30;133144;-81
2021/08/13 05:42:59;;;;;;;3.97;2.78;;;19.30;99.90;;;17.17;100.00;100392.41;2545401;38;134488;-81
2021/08/13 05:45:28;;;;;;;5.50;4.10;;;19.50;99.90;;;17.14;100.00;100396.34;2546795;30;135311;-82
2021/08/13 05:47:58;;;;;;;5.47;3.70;;;19.60;99.90;;;17.15;100.00;100397.19;2545229;30;134978;-81
2021/08/13 05:50:28;;;;;;;4.35;3.40;;;19.70;99.90;;;17.32;100.00;100394.97;2546531;30;133476;-80
2021/08/13 05:52:57;;;;;;;5.10;3.92;;;19.70;99.90;;;17.18;100.00;100383.28;2546567;30;133820;-83
2021/08/13 05:55:29;;;;;;;4.85;4.03;;;19.80;99.90;;;17.31;100.00;100386.03;2548203;30;135754;-81
2021/08/13 05:57:59;;;;;;;5.25;4.00;;;19.80;99.90;;;17.35;100.00;100386.47;2546647;30;134849;-81
2021/08/13 06:00:30;;;;;;;6.57;4.13;;;19.90;99.90;;;17.38;100.00;100380.69;2552231;30;133226;-81
2021/08/13 06:03:06;;;;;;;5.45;3.45;;;19.90;99.90;;;17.37;100.00;100376.28;2561906;30;133916;-80
2021/08/13 06:05:40;;;;;;;6.18;4.00;;;19.90;99.90;;;17.36;100.00;100355.69;2550520;30;134366;-80
2021/08/13 06:08:10;;;;;;;8.15;4.30;;;19.90;99.90;;;17.35;100.00;100354.03;2544447;30;134798;-83
2021/08/13 06:10:39;;;;;;;4.28;3.88;;;20.80;99.90;;;17.39;100.00;100358.00;2545459;30;132956;-80
2021/08/13 06:13:09;;;;;;;5.38;4.10;;;20.00;99.90;;;17.57;100.00;100347.47;2549143;30;134914;-83
2021/08/13 06:15:38;;;;;;;7.00;4.97;;;20.10;99.90;;;17.78;100.00;100346.53;2547662;30;134816;-81
2021/08/13 06:18:10;;;;;;;6.20;4.95;;;20.10;99.90;;;17.92;100.00;100337.44;2548147;30;135265;-82
2021/08/13 06:20:41;;;;;;;5.22;3.60;;;20.10;99.90;;;18.03;100.00;100338.69;2550454;30;133333;-81
2021/08/13 06:23:20;;;;;;;6.30;4.13;;;20.20;99.90;;;18.73;100.00;100337.31;2547890;30;135491;-82
2021/08/13 06:25:49;;;;;;;7.25;4.30;;;20.20;99.90;;;18.85;100.00;100347.28;2548558;30;136099;-82
2021/08/13 06:28:19;;;;;;;4.78;3.88;;;20.40;99.90;;;19.06;100.00;100351.63;2549979;30;134294;-81
2021/08/13 06:30:49;;;;;;;4.90;3.58;;;20.50;99.90;;;19.27;100.00;100361.41;2547645;30;132889;-81
2021/08/13 06:33:20;;;;;;;4.25;3.25;;;20.70;99.90;;;19.57;100.00;100378.88;2548181;30;135855;-82
2021/08/13 06:35:49;;;;;;;4.25;3.22;;;20.80;99.90;;;19.60;100.00;100465.31;2546680;30;136367;-81
2021/08/13 06:38:20;;;;;;;4.50;3.42;;;21.00;99.90;;;19.47;100.00;100459.88;2547238;30;136092;-82
2021/08/13 06:40:50;;;;;;;3.75;3.15;;;21.30;99.90;;;19.74;100.00;100474.25;2564543;30;133602;-80
2021/08/13 06:43:23;;;;;;;3.88;2.97;;;21.50;99.90;;;19.96;100.00;100436.78;2564439;30;134008;-81
2021/08/13 06:45:58;;;;;;;4.25;3.22;;;21.80;99.90;;;20.20;100.00;100441.47;2548174;30;134417;-80
2021/08/13 06:48:30;;;;;;;4.20;2.88;;;22.40;99.90;;;21.08;100.00;100559.31;2548577;30;133990;-83
2021/08/13 06:51:00;;;;;;;5.05;3.00;;;22.30;99.90;;;21.18;100.00;100553.38;2549934;38;133002;-82
2021/08/13 06:53:32;;;;;;;4.10;2.72;;;22.60;99.90;;;21.64;100.00;100514.88;2547346;30;135693;-80
2021/08/13 06:56:01;;;;;;;5.03;3.05;;;22.90;99.90;;;21.10;100.00;100519.13;2551171;30;135260;-82
2021/08/13 06:58:31;;;;;;;4.88;3.17;;;22.30;99.90;;;21.86;100.00;100540.66;2551946;38;134653;-82
2021/08/13 07:01:00;;;;;;;4.13;2.83;;;23.50;99.90;;;22.03;100.00;100551.81;2546674;30;133116;-82
2021/08/13 07:03:29;;;;;;;2.97;2.00;;;24.50;99.90;;;22.23;100.00;100575.28;2549426;30;136068;-84
2021/08/13 07:06:00;;;;;;;3.75;2.55;;;24.00;99.90;;;22.44;100.00;100580.28;2557106;30;135849;-81
2021/08/13 07:08:29;;;;;;;5.63;2.33;;;24.40;99.90;;;22.36;100.00;100605.97;2551804;38;133258;-82
2021/08/13 07:11:02;;;;;;;5.03;2.50;;;24.50;99.00;;;22.71;100.00;100624.41;2547559;30;132867;-81
2021/08/13 07:13:34;;;;;;;2.72;2.25;;;24.90;98.00;;;22.99;100.00;100199.00;2548266;30;135770;-81
2021/08/13 07:16:03;;;;;;;4.05;2.60;;;25.20;96.80;;;23.27;100.00;100310.94;2544899;30;135487;-82
2021/08/13 07:18:37;;;;;;;2.78;2.47;;;25.40;96.50;;;22.75;100.00;100336.47;2546967;30;134781;-81
2021/08/13 07:21:06;;;;;;;3.65;2.60;;;26.60;95.70;;;23.42;100.00;100326.00;2548374;30;132854;-80
2021/08/13 07:23:36;;;;;;;3.47;2.25;;;26.00;94.50;;;23.79;100.00;100340.97;2550208;30;134507;-84
2021/08/13 07:26:05;;;;;;;3.92;1.98;;;26.70;94.20;;;23.25;100.00;100373.13;2550647;30;135644;-82
2021/08/13 07:28:36;;;;;;;3.25;2.33;;;26.70;91.20;;;23.80;100.00;100350.84;2544846;30;134379;-81
2021/08/13 07:31:04;;;;;;;3.03;2.33;;;27.10;90.70;;;23.33;100.00;100366.50;2543495;30;133517;-82
2021/08/13 07:33:42;;;;;;;4.18;2.67;;;26.90;90.00;;;23.71;100.00;100352.31;2543214;30;134548;-82
2021/08/13 07:36:11;;;;;;;2.42;1.60;;;27.40;87.60;;;23.73;100.00;100363.00;2545956;30;135458;-81
2021/08/13 07:38:42;;;;;;;2.63;1.85;;;27.10;85.60;;;23.74;100.00;100357.25;2544456;30;134977;-82
2021/08/13 07:41:12;;;;;;;2.63;2.22;;;27.30;84.20;;;23.86;100.00;100368.19;2545097;38;132807;-84
2021/08/13 07:43:44;;;;;;;3.22;2.08;;;27.40;82.40;;;23.79;100.00;100636.06;2544387;30;135776;-82
2021/08/13 07:46:17;;;;;;;2.65;1.85;;;27.60;80.00;;;24.10;100.00;100757.94;2548730;30;134171;-84
2021/08/13 07:48:46;;;;;;;3.38;2.00;;;27.80;77.90;;;24.31;100.00;100770.22;2546233;30;133514;-81
2021/08/13 07:51:15;;;;;;;2.85;2.05;;;27.70;77.00;;;24.53;100.00;100800.56;2546099;38;132987;-81
2021/08/13 07:53:45;;;;;;;2.67;1.95;;;27.80;76.40;;;24.22;100.00;100793.50;2556895;30;135432;-81
2021/08/13 07:56:15;;;;;;;2.35;2.15;;;27.90;75.00;;;24.27;100.00;100793.63;2563081;30;134362;-79
2021/08/13 07:58:45;;;;;;;3.25;2.00;;;28.00;74.00;;;24.89;100.00;100802.19;2546496;30;135055;-81
2021/08/13 08:01:14;;;;;;;3.58;2.15;;;28.10;74.30;;;25.08;100.00;100789.25;2544881;30;133049;-83
2021/08/13 08:03:43;;;;;;;5.70;2.25;;;28.70;74.20;;;25.03;100.00;100799.00;2548943;30;134620;-81
2021/08/13 08:06:12;;;;;;;2.15;1.50;;;28.60;73.40;;;25.88;100.00;100801.00;2547141;30;134039;-83
2021/08/13 08:08:41;;;;;;;2.65;1.85;;;28.80;72.90;;;25.85;100.00;100803.41;2547925;30;133524;-81
2021/08/13 08:11:10;;;;;;;2.55;1.85;;;29.10;71.70;;;25.89;100.00;100801.84;2561109;30;132990;-84
2021/08/13 08:13:38;;;;;;;3.60;1.50;;;29.60;70.60;;;25.55;100.00;100800.88;2547671;30;134089;-82
2021/08/13 08:16:09;;;;;;;4.43;2.30;;;29.70;68.70;;;25.19;100.00;100799.34;2549950;30;133749;-81
2021/08/13 08:18:37;;;;;;;2.20;1.92;;;29.90;65.90;;;25.52;100.00;100793.16;2546140;38;133565;-83
2021/08/13 08:21:06;;;;;;;2.20;1.30;;;29.70;64.70;;;24.83;100.00;100801.28;2548852;30;133632;-81
2021/08/13 08:23:35;;;;;;;3.92;2.22;;;29.90;61.60;;;25.04;100.00;100799.84;2543309;31;133893;-81
2021/08/13 08:26:05;;;;;;;3.35;2.70;;;29.70;61.40;;;24.92;100.00;100797.09;2544933;30;133774;-81
2021/08/13 08:28:34;;;;;;;2.97;1.60;;;29.70;61.70;;;24.92;100.00;100810.78;2546621;30;133267;-82
2021/08/13 08:31:03;;;;;;;3.38;2.45;;;29.70;61.00;;;24.95;100.00;100809.50;2544164;30;132906;-81
2021/08/13 08:33:33;;;;;;;3.38;1.40;;;29.70;60.30;;;25.32;100.00;100805.38;2545030;30;133731;-85
2021/08/13 08:36:03;;;;;;;2.70;1.90;;;30.00;61.60;;;24.76;100.00;100816.97;2562843;30;133144;-83
2021/08/13 08:38:31;;;;;;;2.55;1.60;;;29.70;59.70;;;25.09;100.00;100813.66;2562814;30;133091;-84
2021/08/13 08:41:05;;;;;;;2.45;1.73;;;29.80;59.90;;;26.10;100.00;100815.66;2549098;30;133847;-83
2021/08/13 08:43:35;;;;;;;3.67;2.25;;;29.80;60.40;;;26.47;100.00;100810.53;2545006;30;133179;-83
2021/08/13 08:46:05;;;;;;;7.85;1.63;;;29.80;60.90;;;26.37;100.00;100813.13;2545988;30;134343;-82
2021/08/13 08:48:40;;;;;;;4.18;2.33;;;30.50;60.40;;;26.50;100.00;100813.88;2551410;30;134783;-82
2021/08/13 08:51:10;;;;;;;2.17;1.40;;;30.20;59.70;;;26.99;100.00;100813.00;2545816;30;133508;-83
2021/08/13 08:53:41;;;;;;;3.63;2.20;;;30.30;59.60;;;27.39;100.00;100811.88;2554129;30;133678;-83
2021/08/13 08:56:11;;;;;;;2.05;1.83;;;30.60;59.60;;;28.00;100.00;100804.31;2547159;38;133893;-82
2021/08/13 08:58:40;;;;;;;4.28;2.20;;;30.90;59.30;;;27.13;100.00;100805.22;2550004;30;133520;-82
2021/08/13 09:01:09;;;;;;;2.60;1.80;;;31.30;58.80;;;27.28;100.00;100807.34;2546310;30;134098;-82
2021/08/13 09:03:41;;;;;;;2.90;1.65;;;31.50;57.80;;;27.76;100.00;100815.63;2549228;30;133217;-80
2021/08/13 09:06:10;;;;;;;6.63;2.15;;;31.70;57.50;;;26.95;100.00;100816.53;2542656;30;133838;-83
2021/08/13 09:08:39;;;;;;;4.47;2.00;;;32.00;56.10;;;27.24;100.00;100820.75;2552215;30;132967;-83
2021/08/13 09:11:09;;;;;;;2.83;1.63;;;32.20;55.00;;;27.54;100.00;100810.13;2545892;30;133190;-81
2021/08/13 09:13:38;;;;;;;2.88;2.22;;;32.30;54.70;;;26.45;100.00;100811.91;2547825;30;134090;-82
2021/08/13 09:16:19;;;;;;;4.72;2.22;;;32.60;53.30;;;26.78;100.00;100803.63;2547874;30;134167;-85
2021/08/13 09:19:02;;;;;;;3.10;2.03;;;32.60;52.60;;;26.01;100.00;100802.59;2546673;30;133130;-82
2021/08/13 09:21:31;;;;;;;3.10;2.03;;;32.60;51.60;;;25.73;100.00;100806.19;2562548;30;133583;-79
2021/08/13 09:24:02;;;;;;;3.00;2.13;;;32.60;50.30;;;27.08;100.00;100805.97;2564715;30;132944;-84
2021/08/13 09:26:31;;;;;;;2.10;1.90;;;32.50;51.30;;;27.62;100.00;100805.28;2553789;30;134081;-81
2021/08/13 09:29:10;;;;;;;3.40;2.20;;;32.30;51.60;;;26.36;100.00;100811.47;2546635;30;133269;-82
2021/08/13 09:32:06;;;;;;;5.07;1.90;;;32.20;50.70;;;26.36;100.00;100810.63;2545201;30;133616;-81
2021/08/13 09:34:51;;;;;;;3.20;2.55;;;32.10;50.80;;;25.86;100.00;100800.41;2545278;30;136413;-83
2021/08/13 09:37:20;;;;;;;6.15;2.20;;;32.40;50.30;;;25.83;100.00;100803.66;2543664;30;133939;-81
2021/08/13 09:39:56;;;;;;;3.83;2.10;;;32.00;49.70;;;26.89;100.00;100795.53;2544629;30;134147;-81
2021/08/13 09:42:36;;;;;;;3.17;1.83;;;31.80;50.80;;;26.82;100.00;100802.03;2543404;30;133090;-82
2021/08/13 09:45:10;;;;;;;4.35;2.22;;;31.80;50.40;;;26.56;100.00;100800.00;2546001;30;134791;-81
2021/08/13 09:47:46;;;;;;;3.65;2.05;;;31.80;49.80;;;26.16;100.00;100811.09;2545737;30;133334;-83
2021/08/13 09:50:21;;;;;;;1.67;1.58;;;31.70;49.40;;;26.83;100.00;100819.31;2546824;30;134555;-82
2021/08/13 09:53:12;;;;;;;3.88;1.98;;;31.30;49.70;;;26.77;100.00;100821.16;2544737;30;133247;-80
2021/08/13 09:55:43;;;;;;;1.73;1.52;;;31.50;50.00;;;26.90;100.00;100819.97;2544177;38;133229;-82
2021/08/13 09:58:13;;;;;;;3.92;2.22;;;31.50;49.90;;;27.19;100.00;100812.47;2545102;30;133704;-82
2021/08/13 10:00:47;;;;;;;4.80;2.25;;;31.50;49.90;;;27.43;100.00;100802.03;2547312;30;132915;-80
2021/08/13 10:03:18;;;;;;;3.45;1.80;;;31.70;50.20;;;27.52;100.00;100797.72;2550462;30;133059;-80
2021/08/13 10:06:05;;;;;;;6.03;2.42;;;31.80;50.00;;;27.34;100.00;100790.63;2556564;30;132969;-81
2021/08/13 10:08:46;;;;;;;3.35;1.52;;;32.00;50.10;;;27.39;100.00;100801.72;2545351;30;135720;-80
2021/08/13 10:11:17;;;;;;;2.42;2.00;;;32.10;50.30;;;27.44;100.00;100795.44;2550731;30;133969;-82
2021/08/13 10:13:52;;;;;;;2.58;2.25;;;32.20;50.00;;;27.61;100.00;100792.63;2564042;30;132981;-82
2021/08/13 10:16:27;;;;;;;3.25;2.10;;;32.30;50.00;;;27.91;100.00;100792.13;2550323;38;135786;-81
2021/08/13 10:19:07;;;;;;;10.30;2.67;;;32.30;49.50;;;28.55;100.00;100784.72;2546076;38;135148;-84